createdAt,value
2018-11-03T00:00:56.189Z,102248.32
2018-11-03T00:03:27.278Z,102254.75
2018-11-03T00:05:57.960Z,102254.73
2018-11-03T00:08:28.500Z,102256.95
2018-11-03T00:10:58.917Z,102254.80
2018-11-03T00:13:29.319Z,102252.23
2018-11-03T00:15:59.917Z,102249.19
2018-11-03T00:18:30.418Z,102247.05
2018-11-03T00:21:00.746Z,102252.17
2018-11-03T00:23:31.149Z,102253.46
2018-11-03T00:26:01.639Z,102252.17
2018-11-03T00:28:32.150Z,102255.61
2018-11-03T00:31:02.617Z,102247.88
2018-11-03T00:33:33.323Z,102251.74
2018-11-03T00:36:03.870Z,102252.19
2018-11-03T00:38:34.342Z,102255.20
2018-11-03T00:41:04.579Z,102257.39
2018-11-03T00:43:35.128Z,102261.28
2018-11-03T00:46:05.684Z,102261.28
2018-11-03T00:48:36.268Z,102265.17
2018-11-03T00:51:06.868Z,102266.92
2018-11-03T00:53:36.978Z,102265.20
2018-11-03T00:56:07.696Z,102264.36
2018-11-03T00:58:38.079Z,102267.80
2018-11-03T01:01:08.564Z,102266.96
2018-11-03T01:03:39.064Z,102274.68
2018-11-03T01:06:09.552Z,102264.81
2018-11-03T01:08:40.160Z,102266.50
2018-11-03T01:11:10.619Z,102260.95
2018-11-03T01:13:40.875Z,102265.67
2018-11-03T01:16:11.259Z,102262.66
2018-11-03T01:18:42.470Z,102261.40
2018-11-03T01:21:12.810Z,102264.42
2018-11-03T01:23:43.391Z,102263.60
2018-11-03T01:26:13.812Z,102263.22
2018-11-03T01:28:44.306Z,102271.41
2018-11-03T01:31:14.546Z,102272.70
2018-11-03T01:33:44.940Z,102270.59
2018-11-03T01:36:15.409Z,102267.60
2018-11-03T01:38:46.475Z,102276.63
2018-11-03T01:41:16.895Z,102273.22
2018-11-03T01:43:47.140Z,102284.40
2018-11-03T01:46:17.528Z,102289.12
2018-11-03T01:48:47.943Z,102291.69
2018-11-03T01:51:18.214Z,102286.97
2018-11-03T01:53:48.489Z,102286.55
2018-11-03T01:56:18.955Z,102293.41
2018-11-03T01:58:49.532Z,102294.70
2018-11-03T02:01:19.921Z,102291.27
2018-11-03T02:03:50.544Z,102290.83
2018-11-03T02:06:21.097Z,102295.52
2018-11-03T02:08:51.360Z,102294.64
2018-11-03T02:11:21.645Z,102296.36
2018-11-03T02:13:52.384Z,102298.91
2018-11-03T02:16:22.827Z,102303.16
2018-11-03T02:18:53.047Z,102299.72
2018-11-03T02:21:23.377Z,102301.00
2018-11-03T02:23:53.762Z,102301.44
2018-11-03T02:26:24.141Z,102300.55
2018-11-03T02:28:54.509Z,102308.22
2018-11-03T02:31:24.877Z,102307.37
2018-11-03T02:33:55.383Z,102306.48
2018-11-03T02:36:25.788Z,102319.31
2018-11-03T02:38:56.133Z,102321.44
2018-11-03T02:41:26.401Z,102321.83
2018-11-03T02:43:56.783Z,102323.52
2018-11-03T02:46:27.180Z,102314.95
2018-11-03T02:48:57.547Z,102324.78
2018-11-03T02:51:27.712Z,102328.58
2018-11-03T02:53:58.179Z,102326.00
2018-11-03T02:56:28.575Z,102327.27
2018-11-03T02:58:59.037Z,102331.91
2018-11-03T03:01:29.437Z,102322.92
2018-11-03T03:03:59.803Z,102330.16
2018-11-03T03:06:30.396Z,102327.97
2018-11-03T03:09:00.877Z,102332.64
2018-11-03T03:11:31.213Z,102330.45
2018-11-03T03:14:01.482Z,102326.16
2018-11-03T03:16:31.879Z,102328.25
2018-11-03T03:19:02.361Z,102328.20
2018-11-03T03:21:33.076Z,102326.04
2018-11-03T03:24:03.442Z,102320.88
2018-11-03T03:26:34.007Z,102318.71
2018-11-03T03:29:04.455Z,102320.81
2018-11-03T03:31:34.959Z,102325.54
2018-11-03T03:34:05.514Z,102322.47
2018-11-03T03:36:36.028Z,102324.19
2018-11-03T03:39:09.547Z,102324.57
2018-11-03T03:41:40.483Z,102324.56
2018-11-03T03:44:10.823Z,102323.69
2018-11-03T03:46:41.366Z,102327.92
2018-11-03T03:49:11.773Z,102328.28
2018-11-03T03:51:42.164Z,102334.24
2018-11-03T03:54:12.556Z,102341.06
2018-11-03T03:56:43.034Z,102344.44
2018-11-03T03:59:13.453Z,102343.50
2018-11-03T04:01:43.803Z,102340.02
2018-11-03T04:04:14.161Z,102338.25
2018-11-03T04:06:44.703Z,102342.45
2018-11-03T04:09:15.170Z,102347.95
2018-11-03T04:11:45.766Z,102357.36
2018-11-03T04:14:16.212Z,102355.23
2018-11-03T04:16:46.818Z,102352.59
2018-11-03T04:19:17.232Z,102354.77
2018-11-03T04:21:47.690Z,102356.84
2018-11-03T04:24:18.056Z,102358.11
2018-11-03T04:26:48.531Z,102360.14
2018-11-03T04:29:19.019Z,102358.78
2018-11-03T04:31:49.418Z,102361.33
2018-11-03T04:34:19.783Z,102362.06
2018-11-03T04:36:50.670Z,102359.46
2018-11-03T04:39:21.042Z,102357.81
2018-11-03T04:41:51.431Z,102353.91
2018-11-03T04:44:21.670Z,102343.65
2018-11-03T04:46:52.134Z,102349.58
2018-11-03T04:49:22.751Z,102353.05
2018-11-03T04:51:53.184Z,102358.03
2018-11-03T04:54:23.645Z,102356.28
2018-11-03T04:56:53.908Z,102348.92
2018-11-03T04:59:24.279Z,102355.30
2018-11-03T05:01:54.673Z,102347.16
2018-11-03T05:04:25.277Z,102350.06
2018-11-03T05:06:55.836Z,102349.20
2018-11-03T05:09:27.738Z,102352.55
2018-11-03T05:11:58.103Z,102347.88
2018-11-03T05:14:28.552Z,102353.38
2018-11-03T05:16:59.009Z,102349.44
2018-11-03T05:19:29.244Z,102352.02
2018-11-03T05:22:01.206Z,102352.44
2018-11-03T05:24:32.942Z,102358.73
2018-11-03T05:27:03.272Z,102360.22
2018-11-03T05:29:33.547Z,102361.38
2018-11-03T05:32:08.087Z,102367.16
2018-11-03T05:34:38.594Z,102374.03
2018-11-03T05:37:10.389Z,102375.91
2018-11-03T05:39:43.816Z,102376.45
2018-11-03T05:42:15.223Z,102378.69
2018-11-03T05:44:45.589Z,102380.62
2018-11-03T05:47:16.564Z,102375.17
2018-11-03T05:49:47.650Z,102378.77
2018-11-03T05:52:18.081Z,102380.49
2018-11-03T05:54:48.759Z,102386.48
2018-11-03T05:57:21.086Z,102389.03
2018-11-03T05:59:57.804Z,102387.38
2018-11-03T06:02:28.439Z,102393.32
2018-11-03T06:04:59.345Z,102395.09
2018-11-03T06:07:29.864Z,102392.56
2018-11-03T06:10:00.359Z,102390.98
2018-11-03T06:12:30.588Z,102398.23
2018-11-03T06:15:00.904Z,102399.46
2018-11-03T06:17:31.271Z,102405.62
2018-11-03T06:20:01.398Z,102417.36
2018-11-03T06:22:31.836Z,102418.73
2018-11-03T06:25:02.194Z,102420.41
2018-11-03T06:27:32.624Z,102424.44
2018-11-03T06:30:03.183Z,102425.26
2018-11-03T06:32:33.468Z,102425.45
2018-11-03T06:35:03.922Z,102427.55
2018-11-03T06:37:34.281Z,102430.25
2018-11-03T06:40:04.698Z,102432.09
2018-11-03T06:42:36.297Z,102434.50
2018-11-03T06:45:07.686Z,102434.23
2018-11-03T06:47:38.164Z,102433.91
2018-11-03T06:50:09.316Z,102433.94
2018-11-03T06:52:39.627Z,102432.59
2018-11-03T06:55:10.322Z,102427.60
2018-11-03T06:57:40.823Z,102438.81
2018-11-03T07:00:11.481Z,102436.75
2018-11-03T07:02:42.107Z,102441.27
2018-11-03T07:05:12.767Z,102440.03
2018-11-03T07:07:43.259Z,102448.81
2018-11-03T07:10:13.786Z,102450.25
2018-11-03T07:12:44.376Z,102449.24
2018-11-03T07:15:14.657Z,102446.28
2018-11-03T07:17:45.015Z,102444.98
2018-11-03T07:20:15.496Z,102446.20
2018-11-03T07:22:45.947Z,102449.05
2018-11-03T07:25:16.540Z,102447.91
2018-11-03T07:27:46.961Z,102449.50
2018-11-03T07:30:17.651Z,102453.80
2018-11-03T07:32:48.054Z,102450.03
2018-11-03T07:35:18.547Z,102438.66
2018-11-03T07:37:48.883Z,102441.92
2018-11-03T07:40:19.343Z,102442.58
2018-11-03T07:42:49.858Z,102441.21
2018-11-03T07:45:20.228Z,102443.48
2018-11-03T07:47:50.699Z,102441.44
2018-11-03T07:50:21.221Z,102427.48
2018-11-03T07:52:51.658Z,102435.37
2018-11-03T07:55:22.411Z,102441.03
2018-11-03T07:57:52.971Z,102445.55
2018-11-03T08:00:24.401Z,102445.12
2018-11-03T08:02:54.752Z,102454.05
2018-11-03T08:05:25.183Z,102450.80
2018-11-03T08:07:55.523Z,102453.52
2018-11-03T08:10:25.973Z,102451.52
2018-11-03T08:12:56.470Z,102458.13
2018-11-03T08:15:26.847Z,102456.27
2018-11-03T08:17:57.227Z,102454.28
2018-11-03T08:20:27.766Z,102452.17
2018-11-03T08:22:58.291Z,102453.00
2018-11-03T08:25:28.879Z,102447.88
2018-11-03T08:27:59.248Z,102449.22
2018-11-03T08:30:29.832Z,102442.00
2018-11-03T08:33:00.179Z,102438.09
2018-11-03T08:35:30.704Z,102444.66
2018-11-03T08:38:01.359Z,102433.45
2018-11-03T08:40:31.854Z,102440.44
2018-11-03T08:43:02.324Z,102437.13
2018-11-03T08:45:32.889Z,102437.66
2018-11-03T08:48:03.385Z,102440.67
2018-11-03T08:50:33.881Z,102440.20
2018-11-03T08:53:04.307Z,102443.73
2018-11-03T08:55:34.784Z,102442.16
2018-11-03T08:58:05.243Z,102453.54
2018-11-03T09:00:35.607Z,102452.59
2018-11-03T09:03:05.973Z,102444.73
2018-11-03T09:05:36.592Z,102451.05
2018-11-03T09:08:07.351Z,102446.91
2018-11-03T09:10:37.861Z,102441.55
2018-11-03T09:13:08.240Z,102446.20
2018-11-03T09:15:38.491Z,102444.46
2018-11-03T09:18:09.006Z,102442.31
2018-11-03T09:20:39.340Z,102446.28
2018-11-03T09:23:09.769Z,102440.73
2018-11-03T09:25:41.093Z,102440.71
2018-11-03T09:28:11.864Z,102440.56
2018-11-03T09:30:42.254Z,102435.16
2018-11-03T09:33:12.717Z,102435.84
2018-11-03T09:35:43.118Z,102436.61
2018-11-03T09:38:13.443Z,102436.39
2018-11-03T09:40:43.940Z,102437.42
2018-11-03T09:43:14.343Z,102435.98
2018-11-03T09:45:44.814Z,102433.66
2018-11-03T09:48:15.077Z,102433.67
2018-11-03T09:50:45.572Z,102428.88
2018-11-03T09:53:15.947Z,102428.64
2018-11-03T09:55:46.553Z,102418.20
2018-11-03T09:58:16.915Z,102420.42
2018-11-03T10:00:47.183Z,102424.51
2018-11-03T10:03:17.634Z,102418.01
2018-11-03T10:05:48.043Z,102413.08
2018-11-03T10:08:18.432Z,102419.16
2018-11-03T10:10:49.023Z,102414.55
2018-11-03T10:13:19.457Z,102411.72
2018-11-03T10:15:49.963Z,102405.80
2018-11-03T10:18:20.451Z,102411.42
2018-11-03T10:20:50.936Z,102414.38
2018-11-03T10:23:21.338Z,102413.92
2018-11-03T10:25:51.590Z,102401.03
2018-11-03T10:28:21.957Z,102410.20
2018-11-03T10:30:52.484Z,102407.34
2018-11-03T10:33:22.860Z,102407.22
2018-11-03T10:35:53.090Z,102405.96
2018-11-03T10:38:23.466Z,102399.51
2018-11-03T10:40:54.072Z,102400.45
2018-11-03T10:43:24.582Z,102395.34
2018-11-03T10:45:55.048Z,102389.91
2018-11-03T10:48:25.303Z,102395.38
2018-11-03T10:50:55.769Z,102398.27
2018-11-03T10:53:26.153Z,102393.73
2018-11-03T10:55:57.636Z,102392.41
2018-11-03T10:58:28.069Z,102389.06
2018-11-03T11:01:03.552Z,102389.83
2018-11-03T11:03:39.009Z,102380.45
2018-11-03T11:06:14.409Z,102389.83
2018-11-03T11:08:49.868Z,102380.61
2018-11-03T11:11:25.320Z,102383.43
2018-11-03T11:13:55.676Z,102385.11
2018-11-03T11:16:25.937Z,102385.87
2018-11-03T11:18:56.398Z,102384.96
2018-11-03T11:21:26.852Z,102383.48
2018-11-03T11:23:57.396Z,102382.51
2018-11-03T11:26:27.890Z,102378.63
2018-11-03T11:28:58.271Z,102371.95
2018-11-03T11:31:28.735Z,102368.94
2018-11-03T11:33:59.171Z,102371.17
2018-11-03T11:36:29.745Z,102370.59
2018-11-03T11:38:59.996Z,102366.38
2018-11-03T11:41:30.407Z,102360.92
2018-11-03T11:44:00.795Z,102355.48
2018-11-03T11:46:31.307Z,102352.19
2018-11-03T11:49:01.855Z,102357.59
2018-11-03T11:51:32.431Z,102346.72
2018-11-03T11:54:02.922Z,102336.70
2018-11-03T11:56:33.474Z,102338.77
2018-11-03T11:59:03.775Z,102342.09
2018-11-03T12:01:34.341Z,102335.89
2018-11-03T12:04:04.882Z,102335.44
2018-11-03T12:06:35.392Z,102338.06
2018-11-03T12:09:07.522Z,102330.28
2018-11-03T12:11:38.005Z,102331.78
2018-11-03T12:14:08.813Z,102335.60
2018-11-03T12:16:39.317Z,102332.52
2018-11-03T12:19:09.783Z,102323.88
2018-11-03T12:21:40.127Z,102320.30
2018-11-03T12:24:10.517Z,102320.55
2018-11-03T12:26:41.087Z,102317.70
2018-11-03T12:29:11.415Z,102321.59
2018-11-03T12:31:42.061Z,102311.46
2018-11-03T12:34:12.576Z,102310.42
2018-11-03T12:36:42.933Z,102309.89
2018-11-03T12:39:13.464Z,102307.66
2018-11-03T12:41:44.097Z,102300.08
2018-11-03T12:44:14.516Z,102306.84
2018-11-03T12:46:45.020Z,102307.51
2018-11-03T12:49:15.337Z,102299.52
2018-11-03T12:51:45.704Z,102305.83
2018-11-03T12:54:16.200Z,102309.19
2018-11-03T12:56:46.616Z,102305.34
2018-11-03T12:59:16.941Z,102295.52
2018-11-03T13:01:47.344Z,102299.20
2018-11-03T13:04:17.956Z,102300.13
2018-11-03T13:06:48.499Z,102295.63
2018-11-03T13:09:18.808Z,102295.16
2018-11-03T13:11:49.185Z,102296.64
2018-11-03T13:14:19.470Z,102290.86
2018-11-03T13:16:49.828Z,102284.48
2018-11-03T13:19:20.134Z,102286.80
2018-11-03T13:21:50.496Z,102287.67
2018-11-03T13:24:20.904Z,102287.82
2018-11-03T13:26:51.451Z,102281.80
2018-11-03T13:29:21.849Z,102278.92
2018-11-03T13:31:52.536Z,102281.27
2018-11-03T13:34:22.911Z,102277.77
2018-11-03T13:36:53.196Z,102271.70
2018-11-03T13:39:23.656Z,102268.91
2018-11-03T13:41:54.156Z,102270.89
2018-11-03T13:44:24.662Z,102275.73
2018-11-03T13:46:54.936Z,102273.63
2018-11-03T13:49:25.259Z,102272.72
2018-11-03T13:51:55.745Z,102277.20
2018-11-03T13:54:26.155Z,102279.87
2018-11-03T13:56:56.623Z,102280.25
2018-11-03T13:59:26.988Z,102279.12
2018-11-03T14:01:57.403Z,102266.66
2018-11-03T14:04:27.682Z,102270.34
2018-11-03T14:06:58.344Z,102268.94
2018-11-03T14:09:28.568Z,102269.64
2018-11-03T14:11:58.866Z,102271.07
2018-11-03T14:14:29.309Z,102272.92
2018-11-03T14:16:59.894Z,102266.45
2018-11-03T14:19:30.172Z,102270.27
2018-11-03T14:22:00.608Z,102271.56
2018-11-03T14:24:31.010Z,102264.05
2018-11-03T14:27:01.587Z,102269.78
2018-11-03T14:29:32.083Z,102261.56
2018-11-03T14:32:02.443Z,102264.60
2018-11-03T14:34:32.811Z,102261.66
2018-11-03T14:37:03.409Z,102258.58
2018-11-03T14:39:34.036Z,102260.75
2018-11-03T14:42:04.520Z,102254.89
2018-11-03T14:44:35.138Z,102257.52
2018-11-03T14:47:05.591Z,102256.31
2018-11-03T14:49:36.032Z,102255.02
2018-11-03T14:52:06.907Z,102250.83
2018-11-03T14:54:37.409Z,102250.47
2018-11-03T14:57:08.339Z,102243.97
2018-11-03T14:59:38.751Z,102241.89
2018-11-03T15:02:09.921Z,102249.78
2018-11-03T15:04:40.237Z,102243.87
2018-11-03T15:07:10.856Z,102237.37
2018-11-03T15:09:41.328Z,102235.33
2018-11-03T15:12:12.176Z,102231.93
2018-11-03T15:14:42.654Z,102234.99
2018-11-03T15:17:12.976Z,102230.75
2018-11-03T15:19:43.436Z,102224.88
2018-11-03T15:22:13.963Z,102223.35
2018-11-03T15:24:44.240Z,102221.84
2018-11-03T15:27:14.786Z,102220.70
2018-11-03T15:29:45.043Z,102226.05
2018-11-03T15:32:15.427Z,102227.06
2018-11-03T15:34:45.780Z,102223.72
2018-11-03T15:37:16.410Z,102219.89
2018-11-03T15:39:46.812Z,102222.12
2018-11-03T15:42:17.252Z,102214.48
2018-11-03T15:44:47.655Z,102218.92
2018-11-03T15:47:18.129Z,102212.19
2018-11-03T15:49:48.554Z,102218.76
2018-11-03T15:52:18.913Z,102222.72
2018-11-03T15:54:49.393Z,102214.14
2018-11-03T15:57:19.778Z,102209.45
2018-11-03T15:59:50.052Z,102209.59
2018-11-03T16:02:20.548Z,102207.14
2018-11-03T16:04:51.012Z,102206.27
2018-11-03T16:07:21.369Z,102210.61
2018-11-03T16:09:51.758Z,102200.72
2018-11-03T16:12:22.256Z,102205.95
2018-11-03T16:14:52.754Z,102206.50
2018-11-03T16:17:22.988Z,102215.64
2018-11-03T16:19:53.383Z,102210.08
2018-11-03T16:22:23.843Z,102207.53
2018-11-03T16:24:54.235Z,102204.16
2018-11-03T16:27:24.613Z,102202.42
2018-11-03T16:29:54.935Z,102201.56
2018-11-03T16:32:25.886Z,102198.98
2018-11-03T16:34:56.744Z,102200.64
2018-11-03T16:37:27.284Z,102198.54
2018-11-03T16:39:57.755Z,102191.66
2018-11-03T16:42:28.255Z,102192.95
2018-11-03T16:44:58.600Z,102185.70
2018-11-03T16:47:28.974Z,102187.45
2018-11-03T16:49:59.475Z,102187.51
2018-11-03T16:52:30.028Z,102186.31
2018-11-03T16:55:00.458Z,102198.41
2018-11-03T16:57:30.820Z,102200.59
2018-11-03T17:00:01.288Z,102194.13
2018-11-03T17:02:31.719Z,102204.83
2018-11-03T17:05:01.948Z,102187.51
2018-11-03T17:07:32.306Z,102191.00
2018-11-03T17:10:03.238Z,102192.23
2018-11-03T17:12:33.636Z,102190.06
2018-11-03T17:15:04.261Z,102193.55
2018-11-03T17:17:34.696Z,102189.30
2018-11-03T17:20:05.216Z,102191.09
2018-11-03T17:22:35.542Z,102189.73
2018-11-03T17:25:06.598Z,102182.08
2018-11-03T17:27:37.089Z,102181.62
2018-11-03T17:30:09.404Z,102175.59
2018-11-03T17:32:39.721Z,102183.72
2018-11-03T17:35:10.636Z,102171.23
2018-11-03T17:37:41.359Z,102177.23
2018-11-03T17:40:12.040Z,102173.79
2018-11-03T17:42:42.575Z,102170.81
2018-11-03T17:45:13.425Z,102171.67
2018-11-03T17:47:43.873Z,102167.83
2018-11-03T17:50:14.723Z,102167.80
2018-11-03T17:52:45.015Z,102158.41
2018-11-03T17:55:15.505Z,102160.09
2018-11-03T17:57:46.041Z,102164.88
2018-11-03T18:00:17.443Z,102157.96
2018-11-03T18:02:48.041Z,102155.48
2018-11-03T18:05:18.424Z,102155.91
2018-11-03T18:07:48.895Z,102154.54
2018-11-03T18:10:19.337Z,102154.64
2018-11-03T18:12:49.775Z,102146.52
2018-11-03T18:15:20.282Z,102154.27
2018-11-03T18:17:50.662Z,102148.73
2018-11-03T18:20:21.244Z,102138.06
2018-11-03T18:22:51.620Z,102140.64
2018-11-03T18:25:22.116Z,102138.55
2018-11-03T18:27:52.696Z,102139.42
2018-11-03T18:30:23.174Z,102137.73
2018-11-03T18:32:53.596Z,102142.46
2018-11-03T18:35:24.003Z,102142.06
2018-11-03T18:37:54.880Z,102142.52
2018-11-03T18:40:25.296Z,102140.41
2018-11-03T18:42:55.697Z,102142.14
2018-11-03T18:45:26.196Z,102142.98
2018-11-03T18:47:56.714Z,102142.13
2018-11-03T18:50:27.092Z,102137.41
2018-11-03T18:52:57.532Z,102137.83
2018-11-03T18:55:28.071Z,102136.53
2018-11-03T18:57:58.455Z,102133.97
2018-11-03T19:00:28.844Z,102129.70
2018-11-03T19:02:59.496Z,102134.00
2018-11-03T19:05:29.964Z,102135.69
2018-11-03T19:08:00.752Z,102131.84
2018-11-03T19:10:31.277Z,102130.55
2018-11-03T19:13:01.809Z,102133.14
2018-11-03T19:15:32.339Z,102132.69
2018-11-03T19:18:02.936Z,102127.14
2018-11-03T19:20:33.959Z,102120.70
2018-11-03T19:23:04.590Z,102119.44
2018-11-03T19:25:34.993Z,102116.85
2018-11-03T19:28:05.640Z,102124.56
2018-11-03T19:30:35.827Z,102123.29
2018-11-03T19:33:06.907Z,102115.15
2018-11-03T19:35:37.348Z,102121.13
2018-11-03T19:38:08.381Z,102116.00
2018-11-03T19:40:38.800Z,102118.13
2018-11-03T19:43:09.056Z,102116.86
2018-11-03T19:45:39.559Z,102114.69
2018-11-03T19:48:10.206Z,102119.41
2018-11-03T19:50:40.527Z,102114.70
2018-11-03T19:53:10.868Z,102109.56
2018-11-03T19:55:41.485Z,102108.69
2018-11-03T19:58:12.064Z,102103.55
2018-11-03T20:00:42.556Z,102101.42
2018-11-03T20:03:13.201Z,102106.56
2018-11-03T20:05:43.828Z,102113.44
2018-11-03T20:08:14.503Z,102105.30
2018-11-03T20:10:45.160Z,102104.02
2018-11-03T20:13:15.594Z,102106.56
2018-11-03T20:15:45.945Z,102103.58
2018-11-03T20:18:16.524Z,102101.87
2018-11-03T20:20:46.923Z,102100.56
2018-11-03T20:23:17.298Z,102094.58
2018-11-03T20:25:47.752Z,102099.72
2018-11-03T20:28:18.268Z,102093.72
2018-11-03T20:30:48.710Z,102094.53
2018-11-03T20:33:19.171Z,102087.25
2018-11-03T20:35:49.628Z,102088.09
2018-11-03T20:38:19.948Z,102085.94
2018-11-03T20:40:50.291Z,102088.91
2018-11-03T20:43:20.738Z,102087.19
2018-11-03T20:45:51.231Z,102091.03
2018-11-03T20:48:21.677Z,102085.53
2018-11-03T20:50:56.295Z,102087.25
2018-11-03T20:53:27.080Z,102079.55
2018-11-03T20:55:57.468Z,102079.58
2018-11-03T20:58:27.675Z,102072.30
2018-11-03T21:00:58.008Z,102074.87
2018-11-03T21:03:28.893Z,102065.03
2018-11-03T21:06:00.745Z,102065.91
2018-11-03T21:08:30.526Z,102068.02
2018-11-03T21:11:00.267Z,102061.20
2018-11-03T21:13:29.958Z,102061.17
2018-11-03T21:15:59.698Z,102059.04
2018-11-03T21:18:29.644Z,102059.05
2018-11-03T21:20:59.407Z,102053.92
2018-11-03T21:23:29.230Z,102050.47
2018-11-03T21:25:58.847Z,102051.36
2018-11-03T21:28:28.734Z,102047.06
2018-11-03T21:30:58.603Z,102041.05
2018-11-03T21:33:28.355Z,102038.91
2018-11-03T21:35:58.067Z,102038.50
2018-11-03T21:38:46.896Z,102035.06
2018-11-03T21:41:16.665Z,102030.77
2018-11-03T21:43:47.481Z,102020.52
2018-11-03T21:46:17.982Z,102023.06
2018-11-03T21:48:48.398Z,102018.79
2018-11-03T21:51:18.803Z,102010.25
2018-11-03T21:53:48.876Z,102006.82
2018-11-03T21:56:19.137Z,102006.83
2018-11-03T21:58:50.500Z,102004.66
2018-11-03T22:01:20.803Z,101996.98
2018-11-03T22:03:51.024Z,102002.13
2018-11-03T22:06:22.407Z,101998.67
2018-11-03T22:08:52.247Z,101999.53
2018-11-03T22:11:26.001Z,101992.70
2018-11-03T22:13:55.816Z,101993.08
2018-11-03T22:16:25.665Z,101994.38
2018-11-03T22:18:56.164Z,101994.34
2018-11-03T22:21:25.967Z,101991.34
2018-11-03T22:23:55.944Z,101989.66
2018-11-03T22:26:25.775Z,101982.83
2018-11-03T22:28:55.787Z,101980.28
2018-11-03T22:31:26.082Z,101977.27
2018-11-03T22:33:56.324Z,101967.44
2018-11-03T22:36:26.413Z,101971.73
2018-11-03T22:38:56.192Z,101961.87
2018-11-03T22:41:26.084Z,101958.87
2018-11-03T22:43:56.062Z,101958.89
2018-11-03T22:46:26.307Z,101950.34
2018-11-03T22:48:56.796Z,101947.78
2018-11-03T22:51:27.206Z,101936.64
2018-11-03T22:53:57.531Z,101929.80
2018-11-03T22:56:27.919Z,101922.09
2018-11-03T22:58:58.327Z,101924.67
2018-11-03T23:01:28.802Z,101918.26
2018-11-03T23:03:59.299Z,101918.24
2018-11-03T23:06:29.587Z,101915.68
2018-11-03T23:09:00.072Z,101910.55
2018-11-03T23:11:30.607Z,101908.42
2018-11-03T23:14:01.115Z,101916.53
2018-11-03T23:16:31.529Z,101905.41
2018-11-03T23:19:01.777Z,101903.27
2018-11-03T23:21:32.158Z,101903.69
2018-11-03T23:24:02.744Z,101897.70
2018-11-03T23:26:33.137Z,101890.00
2018-11-03T23:29:03.542Z,101896.00
2018-11-03T23:31:33.863Z,101890.45
2018-11-03T23:34:04.399Z,101887.45
2018-11-03T23:36:34.688Z,101882.73
2018-11-03T23:39:07.205Z,101877.20
2018-11-03T23:41:37.560Z,101878.48
2018-11-03T23:44:08.281Z,101872.49
2018-11-03T23:46:39.176Z,101867.37
2018-11-03T23:49:09.778Z,101869.52
2018-11-03T23:51:40.421Z,101865.64
2018-11-03T23:54:10.792Z,101862.23
2018-11-03T23:56:41.055Z,101858.39
2018-11-03T23:59:11.540Z,101858.80
